TimeEDT,TemperatureF,Dew PointF,Humidity,Sea Level PressureIn,VisibilityMPH,Wind Direction,Wind SpeedMPH,Gust SpeedMPH,PrecipitationIn,Events,Conditions,WindDirDegrees,DateUTC
12:53 AM,62.1,62.1,100,30.15,10.0,Calm,Calm,-,N/A,,Clear,0,2013-09-19 04:53:00
1:53 AM,62.1,61.0,96,30.15,10.0,Calm,Calm,-,N/A,,Clear,0,2013-09-19 05:53:00
2:53 AM,61.0,60.1,97,30.14,10.0,Calm,Calm,-,N/A,,Clear,0,2013-09-19 06:53:00
3:53 AM,59.0,59.0,100,30.13,8.0,Calm,Calm,-,N/A,,Clear,0,2013-09-19 07:53:00
4:53 AM,59.0,59.0,100,30.13,9.0,Calm,Calm,-,N/A,,Clear,0,2013-09-19 08:53:00
5:53 AM,57.9,57.9,100,30.13,7.0,Calm,Calm,-,0.01,,Clear,0,2013-09-19 09:53:00
6:53 AM,57.0,55.9,96,30.14,7.0,Calm,Calm,-,N/A,,Clear,0,2013-09-19 10:53:00
7:53 AM,57.9,57.0,97,30.15,7.0,Calm,Calm,-,N/A,,Clear,0,2013-09-19 11:53:00
8:53 AM,66.0,61.0,84,30.16,10.0,NE,3.5,-,N/A,,Clear,50,2013-09-19 12:53:00
10:53 AM,75.9,59.0,56,30.18,10.0,East,5.8,-,N/A,,Clear,100,2013-09-19 14:53:00
11:53 AM,77.0,57.9,52,30.17,10.0,ESE,6.9,-,N/A,,Clear,110,2013-09-19 15:53:00
12:53 PM,80.1,59.0,48,30.16,10.0,ESE,9.2,-,N/A,,Clear,110,2013-09-19 16:53:00
1:53 PM,81.0,59.0,47,30.14,10.0,Variable,6.9,-,N/A,,Clear,0,2013-09-19 17:53:00
2:53 PM,82.9,59.0,44,30.11,10.0,Variable,4.6,-,N/A,,Clear,0,2013-09-19 18:53:00
3:53 PM,84.0,59.0,43,30.09,10.0,Variable,4.6,-,N/A,,Clear,0,2013-09-19 19:53:00
4:53 PM,84.0,57.9,41,30.08,10.0,ESE,9.2,-,N/A,,Clear,120,2013-09-19 20:53:00
5:53 PM,82.9,57.9,42,30.08,10.0,ESE,8.1,-,N/A,,Clear,110,2013-09-19 21:53:00
6:53 PM,81.0,61.0,50,30.08,10.0,East,4.6,-,N/A,,Clear,100,2013-09-19 22:53:00
7:53 PM,73.0,63.0,71,30.08,10.0,Calm,Calm,-,N/A,,Clear,0,2013-09-19 23:53:00
8:53 PM,70.0,63.0,78,30.09,10.0,Calm,Calm,-,N/A,,Clear,0,2013-09-20 00:53:00
9:53 PM,66.9,64.9,93,30.09,10.0,Calm,Calm,-,N/A,,Clear,0,2013-09-20 01:53:00
10:53 PM,64.9,64.0,97,30.08,9.0,Calm,Calm,-,N/A,,Clear,0,2013-09-20 02:53:00
11:53 PM,64.9,64.0,97,30.08,8.0,Calm,Calm,-,N/A,,Clear,0,2013-09-20 03:53:00